Time;durP1;ratioP1;P1;durP2;ratioP2;P2;SDS_P1;SDS_P2;PMS_P1;PMS_P2;Temp;Humidity;BMP_temperature;BMP_pressure;BME280_temperature;BME280_humidity;BME280_pressure;Samples;Min_cycle;Max_cycle;Signal;HPM_P1;HPM_P2
2023/05/27 00:02:14;;;;;;;;;;;;;;;22.15;49.37;102158.87;2238389;77;51893;-78
2023/05/27 00:05:17;;;;;;;;;;;;;;;22.17;49.36;102168.99;2238050;77;52359;-78
2023/05/27 00:08:18;;;;;;;;;;;;;;;22.16;49.31;102173.19;2263056;77;51642;-78
2023/05/27 00:11:21;;;;;;;;;;;;;;;22.16;49.37;102174.03;2289269;77;50297;-78
2023/05/27 00:14:24;;;;;;;;;;;;;;;22.15;49.39;102166.13;2289257;77;50698;-79
2023/05/27 00:17:25;;;;;;;;;;;;;;;22.15;49.40;102168.31;2238820;77;51726;-78
2023/05/27 00:20:29;;;;;;;;;;;;;;;22.16;49.44;102165.94;2289495;77;50413;-77
2023/05/27 00:23:30;;;;;;;;;;;;;;;22.15;49.41;102166.13;2289454;77;22364;-78
2023/05/27 00:26:32;;;;;;;;;;;;;;;22.14;49.43;102163.08;2302468;76;51623;-78
2023/05/27 00:29:34;;;;;;;;;;;;;;;22.13;49.51;102164.11;2257186;77;52431;-78
2023/05/27 00:32:35;;;;;;;;;;;;;;;22.13;49.44;102168.15;2289665;76;50277;-78
2023/05/27 00:35:37;;;;;;;;;;;;;;;22.12;49.49;102159.22;2289643;76;50269;-78
2023/05/27 00:38:38;;;;;;;;;;;;;;;22.13;49.50;102166.80;2315052;76;51576;-77
2023/05/27 00:41:41;;;;;;;;;;;;;;;22.13;49.53;102168.15;2263324;77;51278;-77
2023/05/27 00:44:42;;;;;;;;;;;;;;;22.12;49.52;102163.27;2289525;76;51579;-78
2023/05/27 00:47:44;;;;;;;;;;;;;;;22.12;49.44;102167.31;2289579;76;50923;-78
2023/05/27 00:50:46;;;;;;;;;;;;;;;22.13;49.51;102162.75;2289739;77;52616;-77
2023/05/27 00:53:47;;;;;;;;;;;;;;;22.14;49.52;102167.99;2263914;77;51040;-77
2023/05/27 00:56:49;;;;;;;;;;;;;;;22.15;49.48;102160.73;2304702;76;51463;-77
2023/05/27 00:59:51;;;;;;;;;;;;;;;22.14;49.50;102165.77;2329019;74;51640;-77
2023/05/27 01:02:53;;;;;;;;;;;;;;;22.13;49.53;102169.50;2329095;75;50345;-78
2023/05/27 01:05:55;;;;;;;;;;;;;;;22.13;49.53;102166.80;2329067;75;50658;-78
2023/05/27 01:09:01;;;;;;;;;;;;;;;22.13;49.50;102165.45;2328746;75;50345;-78
2023/05/27 01:12:11;;;;;;;;;;;;;;;22.12;49.49;102165.97;2329098;74;51498;-78
2023/05/27 01:15:12;;;;;;;;;;;;;;;22.14;49.49;102164.43;2328884;75;50331;-77
2023/05/27 01:18:16;;;;;;;;;;;;;;;22.13;49.49;102164.94;2328532;76;51576;-77
2023/05/27 01:21:18;;;;;;;;;;;;;;;22.12;49.52;102158.39;2329102;74;25054;-77
2023/05/27 01:24:20;;;;;;;;;;;;;;;22.13;49.54;102162.75;2328021;76;51615;-77
2023/05/27 01:27:24;;;;;;;;;;;;;;;22.11;49.51;102153.48;2345367;74;51491;-77
2023/05/27 01:30:25;;;;;;;;;;;;;;;22.11;49.47;102165.61;2263317;77;21999;-77
2023/05/27 01:33:27;;;;;;;;;;;;;;;22.11;49.50;102157.52;2263175;77;51604;-77
2023/05/27 01:36:29;;;;;;;;;;;;;;;22.11;49.49;102156.69;2289915;77;50779;-77
2023/05/27 01:39:31;;;;;;;;;;;;;;;22.11;49.49;102153.48;2290151;77;50398;-77
2023/05/27 01:42:36;;;;;;;;;;;;;;;22.12;49.52;102151.14;2264278;77;50998;-78
2023/05/27 01:45:37;;;;;;;;;;;;;;;22.11;49.52;102152.13;2288905;77;51566;-77
2023/05/27 01:48:39;;;;;;;;;;;;;;;22.11;49.48;102145.91;2288690;77;52394;-77
2023/05/27 01:51:40;;;;;;;;;;;;;;;22.11;49.57;102144.55;2288864;77;50663;-77
2023/05/27 01:54:42;;;;;;;;;;;;;;;22.11;49.52;102143.20;2238073;77;52713;-77
2023/05/27 01:57:44;;;;;;;;;;;;;;;22.10;49.50;102136.98;2304201;76;50740;-77
2023/05/27 02:00:46;;;;;;;;;;;;;;;22.10;49.55;102138.33;2288745;77;50467;-77
2023/05/27 02:03:47;;;;;;;;;;;;;;;22.09;49.52;102135.79;2262950;77;50299;-76
2023/05/27 02:06:49;;;;;;;;;;;;;;;22.11;49.51;102144.55;2262650;77;49617;-77
2023/05/27 02:09:51;;;;;;;;;;;;;;;22.10;49.50;102147.77;2288859;76;50341;-77
2023/05/27 02:12:52;;;;;;;;;;;;;;;22.10;49.52;102134.80;2288789;76;50333;-76
2023/05/27 02:15:54;;;;;;;;;;;;;;;22.10;49.52;102130.24;2262943;77;50759;-77
2023/05/27 02:18:56;;;;;;;;;;;;;;;22.10;49.48;102133.45;2237942;77;51706;-77
2023/05/27 02:21:57;;;;;;;;;;;;;;;22.08;49.48;102128.22;2288904;77;50391;-77
2023/05/27 02:24:59;;;;;;;;;;;;;;;22.09;49.50;102139.83;2289045;77;50320;-77
2023/05/27 02:28:02;;;;;;;;;;;;;;;22.09;49.50;102140.70;2292845;76;50664;-77
2023/05/27 02:31:04;;;;;;;;;;;;;;;22.09;49.51;102143.88;2355476;74;50847;-77
2023/05/27 02:34:05;;;;;;;;;;;;;;;22.08;49.53;102145.73;2328251;76;51731;-77
2023/05/27 02:37:07;;;;;;;;;;;;;;;22.08;49.51;102132.77;2328830;75;51539;-79
2023/05/27 02:40:09;;;;;;;;;;;;;;;22.09;49.46;102139.35;2329011;76;51550;-78
2023/05/27 02:43:10;;;;;;;;;;;;;;;22.09;49.50;102135.79;2329324;76;51475;-78
2023/05/27 02:46:12;;;;;;;;;;;;;;;22.08;49.50;102143.55;2328331;76;52531;-77
2023/05/27 02:49:14;;;;;;;;;;;;;;;22.08;49.46;102144.39;2328944;75;50755;-78
2023/05/27 02:52:16;;;;;;;;;;;;;;;22.08;49.48;102143.55;2355840;75;50802;-78
2023/05/27 02:55:17;;;;;;;;;;;;;;;22.07;49.49;102140.02;2357289;75;50792;-78
2023/05/27 02:58:19;;;;;;;;;;;;;;;22.08;49.48;102144.90;2313295;75;51800;-78
2023/05/27 03:01:21;;;;;;;;;;;;;;;22.07;49.49;102145.92;2290404;77;51515;-77
2023/05/27 03:04:22;;;;;;;;;;;;;;;22.09;49.43;102154.66;2290001;77;51247;-78
2023/05/27 03:07:24;;;;;;;;;;;;;;;22.08;49.43;102157.03;2289727;77;50706;-78
2023/05/27 03:10:25;;;;;;;;;;;;;;;22.08;49.43;102152.48;2263799;77;52418;-78
2023/05/27 03:13:27;;;;;;;;;;;;;;;22.09;49.46;102150.62;2315816;76;52173;-77
2023/05/27 03:16:30;;;;;;;;;;;;;;;22.07;49.44;102145.41;2289620;77;50270;-78
2023/05/27 03:19:31;;;;;;;;;;;;;;;22.07;49.43;102149.97;2289851;77;51857;-78
2023/05/27 03:22:33;;;;;;;;;;;;;;;22.08;49.44;102143.55;2289058;76;52343;-78
2023/05/27 03:25:34;;;;;;;;;;;;;;;22.09;49.41;102150.62;2297228;76;51371;-78
2023/05/27 03:28:36;;;;;;;;;;;;;;;22.08;49.42;102143.05;2315000;76;50364;-77
2023/05/27 03:31:37;;;;;;;;;;;;;;;22.08;49.44;102139.52;2329218;75;50289;-77
2023/05/27 03:34:39;;;;;;;;;;;;;;;22.09;49.36;102146.58;2357358;75;51203;-78
2023/05/27 03:37:41;;;;;;;;;;;;;;;22.10;49.36;102142.88;2330525;76;50747;-78
2023/05/27 03:40:42;;;;;;;;;;;;;;;22.10;49.35;102140.19;2358044;73;50636;-78
2023/05/27 03:43:44;;;;;;;;;;;;;;;22.09;49.40;102148.78;2331938;75;50673;-78
2023/05/27 03:46:45;;;;;;;;;;;;;;;22.10;49.36;102146.93;2332172;76;50800;-78
2023/05/27 03:49:47;;;;;;;;;;;;;;;22.10;49.36;102153.16;2359643;74;50701;-78
2023/05/27 03:52:49;;;;;;;;;;;;;;;22.11;49.36;102149.95;2330609;76;50754;-78
2023/05/27 03:55:51;;;;;;;;;;;;;;;22.11;49.33;102149.95;2313192;74;50656;-78
2023/05/27 03:58:52;;;;;;;;;;;;;;;22.10;49.33;102146.93;2283093;77;51765;-78
2023/05/27 04:01:54;;;;;;;;;;;;;;;22.10;49.38;102145.58;2297036;77;50628;-78
2023/05/27 04:04:56;;;;;;;;;;;;;;;22.10;49.33;102156.36;2297800;77;49901;-78
2023/05/27 04:07:58;;;;;;;;;;;;;;;22.10;49.34;102150.46;2273886;77;50854;-77
2023/05/27 04:10:59;;;;;;;;;;;;;;;22.11;49.34;102148.59;2273798;77;51455;-78
2023/05/27 04:14:01;;;;;;;;;;;;;;;22.11;49.35;102157.52;2296244;77;50661;-78
2023/05/27 04:17:03;;;;;;;;;;;;;;;22.11;49.33;102160.22;2294109;77;51481;-78
2023/05/27 04:20:14;;;;;;;;;;;;;;;22.12;49.34;102163.27;2294874;77;51468;-78
2023/05/27 04:23:15;;;;;;;;;;;;;;;22.13;49.32;102161.41;2271732;77;52700;-78
2023/05/27 04:26:17;;;;;;;;;;;;;;;22.12;49.40;102168.66;2303482;76;51459;-78
2023/05/27 04:29:20;;;;;;;;;;;;;;;22.12;49.41;102164.62;2290739;76;53235;-78
2023/05/27 04:32:21;;;;;;;;;;;;;;;22.12;49.43;102171.87;2328877;76;50740;-78
2023/05/27 04:35:23;;;;;;;;;;;;;;;22.12;49.46;102172.70;2328703;75;51536;-78
2023/05/27 04:38:24;;;;;;;;;;;;;;;22.12;49.45;102169.17;2355543;74;50640;-78
2023/05/27 04:41:28;;;;;;;;;;;;;;;22.12;49.47;102170.52;2328526;75;50763;-78
2023/05/27 04:44:29;;;;;;;;;;;;;;;22.13;49.56;102163.59;2355163;75;52477;-78
2023/05/27 04:47:31;;;;;;;;;;;;;;;22.17;49.60;102173.03;2328273;74;50647;-78
2023/05/27 04:50:34;;;;;;;;;;;;;;;22.19;49.60;102174.23;2355934;75;49975;-78
2023/05/27 04:53:36;;;;;;;;;;;;;;;22.27;49.37;102175.59;2328941;74;22331;-78
2023/05/27 04:56:37;;;;;;;;;;;;;;;22.32;49.09;102176.41;2315079;74;51545;-78
2023/05/27 05:03:00;;;;;;;;;;;;;;;22.41;48.75;102168.65;2290148;77;22315;-79
2023/05/27 05:06:02;;;;;;;;;;;;;;;22.48;48.62;102172.83;2290082;77;24462;-79
2023/05/27 05:09:04;;;;;;;;;;;;;;;22.52;48.45;102169.63;2264363;76;51532;-78
2023/05/27 05:12:06;;;;;;;;;;;;;;;22.57;48.38;102166.42;2263398;77;51704;-78
2023/05/27 05:15:08;;;;;;;;;;;;;;;22.60;48.30;102158.80;2263552;77;50663;-78
2023/05/27 05:18:10;;;;;;;;;;;;;;;22.63;48.34;102150.03;2289141;77;51647;-78
2023/05/27 05:21:12;;;;;;;;;;;;;;;22.67;48.28;102154.92;2263431;77;50058;-78
2023/05/27 05:24:14;;;;;;;;;;;;;;;22.68;48.33;102157.94;2263440;77;49634;-79
2023/05/27 05:27:15;;;;;;;;;;;;;;;22.74;48.30;102161.31;2276584;75;50342;-78
2023/05/27 05:30:17;;;;;;;;;;;;;;;22.76;48.24;102157.94;2277089;77;51479;-78
2023/05/27 05:33:19;;;;;;;;;;;;;;;22.81;48.11;102160.95;2252211;78;50626;-78
2023/05/27 05:36:21;;;;;;;;;;;;;;;22.88;48.10;102164.30;2227217;79;52632;-78
2023/05/27 05:39:22;;;;;;;;;;;;;;;22.94;47.86;102168.50;2252006;78;50727;-78
2023/05/27 05:42:24;;;;;;;;;;;;;;;22.98;47.79;102170.36;2250387;77;50408;-78
2023/05/27 05:45:26;;;;;;;;;;;;;;;23.01;47.71;102168.65;2250955;78;50517;-78
2023/05/27 05:48:28;;;;;;;;;;;;;;;23.04;47.65;102168.29;2226165;79;51251;-78
2023/05/27 05:51:30;;;;;;;;;;;;;;;23.04;47.68;102170.99;2227339;79;52913;-78
2023/05/27 05:54:32;;;;;;;;;;;;;;;23.11;47.57;102169.27;2251870;77;51522;-78
2023/05/27 05:57:33;;;;;;;;;;;;;;;23.12;47.61;102168.76;2302218;76;50646;-76
2023/05/27 06:00:35;;;;;;;;;;;;;;;23.19;47.46;102170.58;2264657;77;52422;-77
2023/05/27 06:03:37;;;;;;;;;;;;;;;23.20;47.43;102176.33;2288831;77;51677;-77
2023/05/27 06:06:40;;;;;;;;;;;;;;;23.24;47.33;102171.41;2288618;77;51546;-77
2023/05/27 06:09:41;;;;;;;;;;;;;;;23.28;47.29;102173.27;2292528;77;50226;-78
2023/05/27 06:12:43;;;;;;;;;;;;;;;23.30;47.21;102163.09;2238224;77;52522;-78
2023/05/27 06:15:45;;;;;;;;;;;;;;;23.33;47.23;102170.87;2288738;77;51668;-77
2023/05/27 06:18:46;;;;;;;;;;;;;;;23.38;47.12;102166.61;2288521;77;51609;-78
2023/05/27 06:21:48;;;;;;;;;;;;;;;23.39;47.04;102174.20;2289284;77;51500;-79
2023/05/27 06:24:49;;;;;;;;;;;;;;;23.42;47.00;102177.89;2265881;77;50744;-77
2023/05/27 06:27:51;;;;;;;;;;;;;;;23.45;46.98;102174.82;2303772;76;51576;-76
2023/05/27 06:30:53;;;;;;;;;;;;;;;23.49;46.93;102182.91;2288538;77;51409;-75
2023/05/27 06:33:54;;;;;;;;;;;;;;;23.50;46.91;102185.94;2288724;77;50769;-76
2023/05/27 06:36:56;;;;;;;;;;;;;;;23.51;46.85;102187.64;2264908;77;49810;-77
2023/05/27 06:39:57;;;;;;;;;;;;;;;23.55;46.84;102181.35;2262778;77;51727;-76
2023/05/27 06:42:59;;;;;;;;;;;;;;;23.54;46.75;102181.87;2288590;77;50442;-77
2023/05/27 06:46:01;;;;;;;;;;;;;;;23.57;46.71;102189.61;2288562;76;51555;-76
2023/05/27 06:49:03;;;;;;;;;;;;;;;23.61;46.60;102187.38;2262362;77;52643;-76
2023/05/27 06:52:05;;;;;;;;;;;;;;;23.62;46.54;102185.86;2288598;77;51525;-76
2023/05/27 06:55:07;;;;;;;;;;;;;;;23.66;46.53;102184.98;2288525;77;50793;-75
2023/05/27 06:58:08;;;;;;;;;;;;;;;23.65;46.51;102192.25;2262322;77;50306;-76
2023/05/27 07:01:10;;;;;;;;;;;;;;;23.64;46.49;102192.45;2262654;77;51278;-75
2023/05/27 07:04:11;;;;;;;;;;;;;;;23.66;46.49;102197.14;2288617;77;50297;-75
2023/05/27 07:07:13;;;;;;;;;;;;;;;23.67;46.47;102191.57;2288312;77;50684;-74
2023/05/27 07:10:15;;;;;;;;;;;;;;;23.67;46.43;102184.81;2288483;77;51550;-76
2023/05/27 07:13:16;;;;;;;;;;;;;;;23.70;46.35;102193.91;2237821;77;51626;-76
2023/05/27 07:16:19;;;;;;;;;;;;;;;23.70;46.36;102191.72;2262146;77;51539;-75
2023/05/27 07:19:20;;;;;;;;;;;;;;;23.70;46.34;102187.67;2288479;77;52397;-75
2023/05/27 07:22:22;;;;;;;;;;;;;;;23.68;46.37;102186.48;2288658;77;50370;-75
2023/05/27 07:25:24;;;;;;;;;;;;;;;23.68;46.38;102187.83;2225862;77;51268;-76
2023/05/27 07:28:27;;;;;;;;;;;;;;;23.69;46.34;102185.48;2249426;77;22380;-75
2023/05/27 07:31:28;;;;;;;;;;;;;;;23.69;46.37;102177.38;2262060;77;51605;-76
2023/05/27 07:34:30;;;;;;;;;;;;;;;23.68;46.33;102181.59;2288995;77;51477;-75
2023/05/27 07:37:32;;;;;;;;;;;;;;;23.68;46.37;102178.89;2237275;77;51254;-76
2023/05/27 07:40:33;;;;;;;;;;;;;;;23.68;46.34;102183.78;2262027;77;51728;-75
2023/05/27 07:43:35;;;;;;;;;;;;;;;23.65;46.36;102177.39;2287844;77;50371;-76
2023/05/27 07:46:38;;;;;;;;;;;;;;;23.64;46.43;102177.07;2295869;76;50690;-75
2023/05/27 07:49:40;;;;;;;;;;;;;;;23.64;46.38;102168.97;2306267;76;51058;-75
2023/05/27 07:52:41;;;;;;;;;;;;;;;23.64;46.46;102164.08;2333112;75;51561;-76
2023/05/27 07:55:43;;;;;;;;;;;;;;;23.63;46.46;102169.97;2291967;77;50348;-75
2023/05/27 07:58:45;;;;;;;;;;;;;;;23.63;46.43;102165.08;2275420;76;50165;-76
2023/05/27 08:01:47;;;;;;;;;;;;;;;23.64;46.40;102158.67;2306619;76;52648;-76
2023/05/27 08:04:48;;;;;;;;;;;;;;;23.61;46.45;102155.81;2309102;76;50318;-77
2023/05/27 08:07:50;;;;;;;;;;;;;;;23.60;46.51;102150.58;2308821;76;50378;-75
2023/05/27 08:10:52;;;;;;;;;;;;;;;23.61;46.44;102146.36;2309085;77;51583;-76
2023/05/27 08:13:53;;;;;;;;;;;;;;;23.61;46.46;102142.31;2306660;76;52401;-76
2023/05/27 08:16:55;;;;;;;;;;;;;;;23.61;46.35;102143.66;2308837;77;51489;-76
2023/05/27 08:19:57;;;;;;;;;;;;;;;23.58;46.39;102136.41;2308824;76;50373;-76
2023/05/27 08:22:58;;;;;;;;;;;;;;;23.60;46.43;102132.50;2308981;76;50704;-75
2023/05/27 08:26:00;;;;;;;;;;;;;;;23.56;46.50;102135.25;2289540;76;52472;-76
2023/05/27 08:29:01;;;;;;;;;;;;;;;23.56;46.49;102136.60;2268508;77;51544;-77
2023/05/27 08:32:03;;;;;;;;;;;;;;;23.55;46.50;102138.13;2243326;77;51443;-75
2023/05/27 08:35:05;;;;;;;;;;;;;;;23.52;46.47;102127.16;2249761;78;51471;-77
2023/05/27 08:38:06;;;;;;;;;;;;;;;23.51;46.50;102130.06;2240677;78;51667;-78
2023/05/27 08:41:08;;;;;;;;;;;;;;;23.48;46.47;102119.11;2251546;77;51542;-77
2023/05/27 08:44:10;;;;;;;;;;;;;;;23.47;46.49;102116.89;2250506;77;50657;-77
2023/05/27 08:47:11;;;;;;;;;;;;;;;23.46;46.52;102113.03;2261984;77;51531;-77
2023/05/27 08:50:13;;;;;;;;;;;;;;;23.44;46.49;102104.27;2253033;77;51572;-77
2023/05/27 08:53:15;;;;;;;;;;;;;;;23.42;46.48;102107.13;2253094;78;50693;-77
2023/05/27 08:56:18;;;;;;;;;;;;;;;23.42;46.49;102107.65;2292912;76;50418;-77
2023/05/27 08:59:19;;;;;;;;;;;;;;;23.42;46.49;102099.55;2293242;76;52298;-77
2023/05/27 09:02:21;;;;;;;;;;;;;;;23.40;46.51;102092.99;2260414;77;50997;-77
2023/05/27 09:05:23;;;;;;;;;;;;;;;23.39;46.53;102087.76;2292508;77;50167;-77
2023/05/27 09:08:24;;;;;;;;;;;;;;;23.40;46.50;102090.29;2290744;77;50636;-77
2023/05/27 09:11:34;;;;;;;;;;;;;;;23.40;46.43;102089.42;2290841;76;50068;-77
2023/05/27 09:14:32;;;;;;;;;;;;;;;23.40;46.43;102092.13;2261019;77;22201;-77
2023/05/27 09:17:34;;;;;;;;;;;;;;;23.38;46.44;102090.98;2290657;77;51480;-77
2023/05/27 09:20:36;;;;;;;;;;;;;;;23.36;46.38;102090.31;2291155;77;50166;-77
2023/05/27 09:23:38;;;;;;;;;;;;;;;23.37;46.40;102092.49;2259764;77;50295;-77
2023/05/27 09:26:41;;;;;;;;;;;;;;;23.36;46.30;102089.48;2266882;76;51719;-77
2023/05/27 09:29:42;;;;;;;;;;;;;;;23.34;46.38;102089.64;2299039;77;51659;-77
2023/05/27 09:32:44;;;;;;;;;;;;;;;23.32;46.37;102092.19;2266625;77;51464;-77
2023/05/27 09:35:47;;;;;;;;;;;;;;;23.31;46.32;102086.47;2299622;76;50577;-77
2023/05/27 09:38:49;;;;;;;;;;;;;;;23.28;46.29;102084.14;2243578;77;51851;-77
2023/05/27 09:41:51;;;;;;;;;;;;;;;23.27;46.21;102094.08;2267839;77;50775;-77
2023/05/27 09:44:54;;;;;;;;;;;;;;;23.24;46.38;102087.17;2266466;77;50881;-77
2023/05/27 09:47:56;;;;;;;;;;;;;;;23.22;46.46;102082.97;2266284;77;50367;-77
2023/05/27 09:50:58;;;;;;;;;;;;;;;23.22;46.37;102085.19;2266388;77;51243;-78
2023/05/27 09:54:00;;;;;;;;;;;;;;;23.19;46.39;102089.56;2298416;77;51532;-78
2023/05/27 09:57:02;;;;;;;;;;;;;;;23.18;46.49;102079.80;2310989;76;50757;-78
2023/05/27 10:00:18;;;;;;;;;;;;;;;23.17;46.50;102079.97;2300008;77;50009;-77
2023/05/27 10:03:17;;;;;;;;;;;;;;;23.14;46.53;102075.77;2269352;77;21676;-78
2023/05/27 10:06:21;;;;;;;;;;;;;;;23.15;46.40;102069.36;2300572;77;50714;-77
2023/05/27 10:09:23;;;;;;;;;;;;;;;23.13;46.40;102068.69;2299477;77;50946;-78
2023/05/27 10:12:24;;;;;;;;;;;;;;;23.11;46.36;102068.02;2299064;77;50260;-77
2023/05/27 10:15:27;;;;;;;;;;;;;;;23.12;46.32;102058.06;2267895;77;51800;-77
2023/05/27 10:18:29;;;;;;;;;;;;;;;23.09;46.45;102056.56;2299216;77;50849;-78
2023/05/27 10:21:31;;;;;;;;;;;;;;;23.08;46.50;102056.75;2299211;76;51484;-78
2023/05/27 10:24:33;;;;;;;;;;;;;;;23.08;46.50;102056.23;2299513;77;50447;-78
2023/05/27 10:27:36;;;;;;;;;;;;;;;23.06;46.61;102051.52;2279061;76;50359;-78
2023/05/27 10:30:51;;;;;;;;;;;;;;;23.06;46.60;102060.97;2299224;76;50878;-78
2023/05/27 10:33:54;;;;;;;;;;;;;;;23.04;46.61;102057.12;2299008;75;49852;-78
2023/05/27 10:37:00;;;;;;;;;;;;;;;23.04;46.39;102047.67;2298020;77;51667;-78
2023/05/27 10:40:01;;;;;;;;;;;;;;;23.00;46.54;102042.28;2240671;77;51483;-78
2023/05/27 10:43:03;;;;;;;;;;;;;;;23.00;46.54;102038.75;2298027;77;50213;-77
2023/05/27 10:46:05;;;;;;;;;;;;;;;23.00;46.58;102046.84;2265449;77;50670;-78
2023/05/27 10:49:27;;;;;;;;;;;;;;;22.97;46.71;102032.36;2297699;77;52574;-78
2023/05/27 10:52:33;;;;;;;;;;;;;;;22.95;46.67;102030.31;2265892;77;50802;-78
2023/05/27 10:55:32;;;;;;;;;;;;;;;22.94;46.64;102024.56;2308347;76;22368;-78
2023/05/27 10:58:34;;;;;;;;;;;;;;;22.93;46.77;102031.00;2281432;76;51482;-78
2023/05/27 11:01:36;;;;;;;;;;;;;;;22.93;46.78;102020.20;2289987;77;52346;-78
2023/05/27 11:04:38;;;;;;;;;;;;;;;22.92;46.76;102018.53;2258904;77;51457;-78
2023/05/27 11:07:40;;;;;;;;;;;;;;;22.91;46.88;102023.58;2289836;77;50624;-78
2023/05/27 11:10:42;;;;;;;;;;;;;;;22.91;46.81;102020.88;2289989;76;50347;-78
2023/05/27 11:13:44;;;;;;;;;;;;;;;22.91;46.82;102003.34;2289886;77;50700;-78
2023/05/27 11:16:53;;;;;;;;;;;;;;;22.90;46.85;101994.92;2258547;77;52489;-77
2023/05/27 11:19:52;;;;;;;;;;;;;;;22.92;46.82;101999.64;2258386;77;22449;-77
2023/05/27 11:22:54;;;;;;;;;;;;;;;22.92;46.86;101998.29;2259236;77;51524;-77
2023/05/27 11:25:56;;;;;;;;;;;;;;;22.88;46.91;101992.39;2285731;76;50712;-77
2023/05/27 11:28:58;;;;;;;;;;;;;;;22.90;46.88;101987.66;2292197;76;51105;-77
2023/05/27 11:31:59;;;;;;;;;;;;;;;22.92;46.88;101991.54;2275275;78;50713;-77
2023/05/27 11:35:01;;;;;;;;;;;;;;;22.92;46.95;101992.89;2252044;78;50670;-79
2023/05/27 11:38:03;;;;;;;;;;;;;;;22.92;46.96;101986.14;2251599;78;51696;-80
2023/05/27 11:41:08;;;;;;;;;;;;;;;22.91;46.93;101989.84;2252247;78;50653;-79
2023/05/27 11:44:09;;;;;;;;;;;;;;;22.89;46.92;101975.20;2275595;78;50829;-78
2023/05/27 11:47:11;;;;;;;;;;;;;;;22.89;46.91;101981.08;2251892;78;51527;-77
2023/05/27 11:50:14;;;;;;;;;;;;;;;22.88;47.03;101976.20;2257576;77;51484;-78
2023/05/27 11:53:16;;;;;;;;;;;;;;;22.92;46.94;101968.59;2257606;78;51824;-80
2023/05/27 11:56:17;;;;;;;;;;;;;;;22.88;47.07;101961.87;2292526;76;50780;-78
2023/05/27 11:59:19;;;;;;;;;;;;;;;22.88;47.03;101960.52;2346239;74;51546;-78
2023/05/27 12:02:21;;;;;;;;;;;;;;;22.86;47.13;101959.85;2304048;77;51343;-78
2023/05/27 12:05:22;;;;;;;;;;;;;;;22.87;47.03;101958.34;2262165;76;52081;-78
2023/05/27 12:08:24;;;;;;;;;;;;;;;22.89;47.08;101948.69;2268485;77;51432;-79
2023/05/27 12:11:26;;;;;;;;;;;;;;;22.85;47.05;101956.32;2304236;77;50764;-79
2023/05/27 12:14:27;;;;;;;;;;;;;;;22.86;47.15;101951.23;2304177;77;50349;-78
2023/05/27 12:17:29;;;;;;;;;;;;;;;22.86;47.17;101940.96;2268455;77;50538;-77
2023/05/27 12:20:31;;;;;;;;;;;;;;;22.85;47.15;101935.24;2268763;77;50770;-78
2023/05/27 12:23:33;;;;;;;;;;;;;;;22.85;47.16;101932.03;2304300;76;51562;-78
2023/05/27 12:26:34;;;;;;;;;;;;;;;22.86;47.07;101928.30;2306471;76;51578;-78
2023/05/27 12:29:36;;;;;;;;;;;;;;;22.83;47.15;101934.89;2344784;75;51265;-78
2023/05/27 12:32:38;;;;;;;;;;;;;;;22.82;47.18;101921.09;2371439;74;51645;-78
2023/05/27 12:35:40;;;;;;;;;;;;;;;22.81;47.13;101917.20;2371582;74;51671;-78
2023/05/27 12:38:42;;;;;;;;;;;;;;;22.83;47.21;101919.22;2336035;75;50388;-78
2023/05/27 12:41:44;;;;;;;;;;;;;;;22.81;47.15;101912.67;2364908;74;50691;-78
2023/05/27 12:44:46;;;;;;;;;;;;;;;22.79;47.27;101913.88;2288849;77;50829;-78
2023/05/27 12:47:47;;;;;;;;;;;;;;;22.82;47.27;101906.77;2288338;77;50819;-78
2023/05/27 12:50:49;;;;;;;;;;;;;;;22.78;47.28;101905.43;2288707;77;50696;-78
2023/05/27 12:53:51;;;;;;;;;;;;;;;22.77;47.33;101893.80;2289136;76;50724;-78
2023/05/27 12:56:53;;;;;;;;;;;;;;;22.81;47.36;101889.73;2299492;76;50846;-78
2023/05/27 12:59:54;;;;;;;;;;;;;;;22.81;47.33;101884.34;2378918;74;52500;-78
2023/05/27 13:02:56;;;;;;;;;;;;;;;22.78;47.43;101881.14;2344065;74;50249;-78
2023/05/27 13:05:58;;;;;;;;;;;;;;;22.79;47.43;101877.44;2343683;76;50380;-78
2023/05/27 13:09:00;;;;;;;;;;;;;;;22.75;47.51;101868.85;2378498;74;51595;-78
2023/05/27 13:12:02;;;;;;;;;;;;;;;22.77;47.58;101876.27;2343594;74;50320;-78
2023/05/27 13:15:03;;;;;;;;;;;;;;;22.77;47.61;101874.91;2343525;75;50868;-78
2023/05/27 13:18:06;;;;;;;;;;;;;;;22.77;47.63;101879.48;2320523;74;51193;-77
2023/05/27 13:21:08;;;;;;;;;;;;;;;22.77;47.69;101874.08;2249069;79;52656;-77
2023/05/27 13:24:09;;;;;;;;;;;;;;;22.76;47.68;101869.20;2223897;78;51897;-77
2023/05/27 13:27:11;;;;;;;;;;;;;;;22.77;47.72;101865.47;2248842;78;50795;-76
2023/05/27 13:30:13;;;;;;;;;;;;;;;22.77;47.68;101858.72;2200251;79;51670;-77
2023/05/27 13:33:15;;;;;;;;;;;;;;;22.78;47.76;101853.64;2224006;78;51643;-77
2023/05/27 13:36:17;;;;;;;;;;;;;;;22.77;47.79;101849.28;2224059;79;52633;-77
2023/05/27 13:39:18;;;;;;;;;;;;;;;22.78;47.78;101846.89;2224734;79;51568;-76
2023/05/27 13:42:20;;;;;;;;;;;;;;;22.79;47.80;101849.94;2203942;79;52411;-77
2023/05/27 13:45:22;;;;;;;;;;;;;;;22.79;47.83;101852.64;2249808;78;51516;-76
2023/05/27 13:48:23;;;;;;;;;;;;;;;22.79;47.85;101836.97;2260401;75;51414;-77
2023/05/27 13:51:25;;;;;;;;;;;;;;;22.78;47.86;101841.50;2379020;74;51537;-78
2023/05/27 13:54:26;;;;;;;;;;;;;;;22.78;47.87;101829.36;2351326;75;51145;-77
2023/05/27 13:57:28;;;;;;;;;;;;;;;22.81;47.87;101833.55;2333009;75;51216;-77
2023/05/27 14:00:30;;;;;;;;;;;;;;;22.80;47.93;101825.97;2343777;76;50486;-77
2023/05/27 14:03:32;;;;;;;;;;;;;;;22.81;47.88;101827.67;2378451;74;51638;-76
2023/05/27 14:06:35;;;;;;;;;;;;;;;22.81;47.92;101824.10;2306387;76;51754;-76
2023/05/27 14:09:36;;;;;;;;;;;;;;;22.82;47.95;101822.58;2378652;74;51626;-76
2023/05/27 14:12:38;;;;;;;;;;;;;;;22.82;47.96;101822.58;2343530;76;51581;-76
2023/05/27 14:15:39;;;;;;;;;;;;;;;22.82;48.00;101811.79;2343468;76;51485;-76
2023/05/27 14:18:43;;;;;;;;;;;;;;;22.82;48.01;101810.44;2321525;75;52578;-75
2023/05/27 14:21:45;;;;;;;;;;;;;;;22.83;48.03;101805.36;2387736;74;50433;-76
2023/05/27 14:24:48;;;;;;;;;;;;;;;22.85;48.04;101800.31;2355038;75;52454;-75
2023/05/27 14:27:49;;;;;;;;;;;;;;;22.85;48.04;101793.56;2387567;74;50868;-75
2023/05/27 14:30:52;;;;;;;;;;;;;;;22.87;48.05;101792.87;2346555;75;49444;-75
2023/05/27 14:33:54;;;;;;;;;;;;;;;22.87;48.08;101787.48;2387979;74;51692;-75
2023/05/27 14:36:55;;;;;;;;;;;;;;;22.87;48.11;101787.48;2387854;74;50651;-75
2023/05/27 14:39:57;;;;;;;;;;;;;;;22.88;48.12;101778.34;2355161;75;51493;-75
2023/05/27 14:42:59;;;;;;;;;;;;;;;22.88;48.12;101779.17;2360459;75;52445;-75
2023/05/27 14:46:00;;;;;;;;;;;;;;;22.89;48.14;101773.27;2386724;74;51447;-75
2023/05/27 14:49:02;;;;;;;;;;;;;;;22.89;48.16;101769.22;2306411;76;50294;-75
2023/05/27 14:52:03;;;;;;;;;;;;;;;22.91;48.20;101775.27;2272256;77;50371;-75
2023/05/27 14:55:07;;;;;;;;;;;;;;;22.91;48.21;101771.22;2271974;77;52424;-75
2023/05/27 14:58:08;;;;;;;;;;;;;;;22.92;48.21;101769.70;2296032;77;50295;-75
2023/05/27 15:01:10;;;;;;;;;;;;;;;22.93;48.22;101759.73;2296137;77;50375;-76
2023/05/27 15:04:12;;;;;;;;;;;;;;;22.93;48.25;101767.84;2272194;77;51615;-75
2023/05/27 15:07:14;;;;;;;;;;;;;;;22.93;48.28;101759.73;2247011;77;52423;-75
2023/05/27 15:10:16;;;;;;;;;;;;;;;22.94;48.29;101760.05;2272298;77;50723;-76
2023/05/27 15:13:19;;;;;;;;;;;;;;;22.95;48.37;101756.34;2296348;77;50424;-77
2023/05/27 15:16:21;;;;;;;;;;;;;;;22.95;48.32;101760.40;2271014;77;51642;-76
2023/05/27 15:19:22;;;;;;;;;;;;;;;22.96;48.37;101755.31;2304090;75;52536;-75
2023/05/27 15:22:24;;;;;;;;;;;;;;;22.96;48.34;101743.17;2360269;75;51732;-75
2023/05/27 15:25:25;;;;;;;;;;;;;;;22.97;48.38;101744.89;2354971;75;51461;-75
2023/05/27 15:28:27;;;;;;;;;;;;;;;22.97;48.43;101739.49;2354782;75;51436;-75
2023/05/27 15:31:28;;;;;;;;;;;;;;;22.99;48.41;101734.72;2388118;74;51422;-75
2023/05/27 15:34:30;;;;;;;;;;;;;;;22.99;48.40;101730.67;2355020;75;51476;-75
2023/05/27 15:37:32;;;;;;;;;;;;;;;22.99;48.46;101727.98;2387540;74;52054;-74